Cromona, Kentucky
Current Conditions -  °F | °C
As of 1:35 PM on Thursday 30 Oct 2014 (Local Time) from KLNP Reporting Station
Clear Clear  
Wind Chill: 50°   Ceiling: Unl
Heat Index: 50°   Visibility: 10mi
Dew Point: 34°   Wind: 3mph
Humidity: 54%   Direction: 300°WNW
Pressure: 30.09"   Gusts: NA
Location:  37.19°N, 82.7°W
Report Text: KLNP 301735Z AUTO 30003KT 10SM CLR 10/01 A3009 RMK AO2
Loading
Personal Weather Stations






























Interactive Weather Map
Tropical Storm Tracking
New forecast layout! Learn more

10-Day Weather Forecast

Advertisements
Track Severe Weather on mobile